createdAt,value
2019-03-17T00:02:20.196Z,12.65
2019-03-17T00:04:48.693Z,12.25
2019-03-17T00:07:17.117Z,12.47
2019-03-17T00:09:45.862Z,11.12
2019-03-17T00:12:14.348Z,11.55
2019-03-17T00:14:42.782Z,10.53
2019-03-17T00:17:11.507Z,12.00
2019-03-17T00:19:40.130Z,12.25
2019-03-17T00:22:08.654Z,10.03
2019-03-17T00:24:37.493Z,11.88
2019-03-17T00:27:06.385Z,8.95
2019-03-17T00:29:34.820Z,11.68
2019-03-17T00:32:03.426Z,12.15
2019-03-17T00:34:43.249Z,10.75
2019-03-17T00:37:01.995Z,10.38
2019-03-17T00:39:30.577Z,12.55
2019-03-17T00:41:59.000Z,9.65
2019-03-17T00:44:27.433Z,20.02
2019-03-17T00:46:55.926Z,13.28
2019-03-17T00:49:24.352Z,14.03
2019-03-17T00:51:52.780Z,11.83
2019-03-17T00:54:21.587Z,10.68
2019-03-17T00:56:50.008Z,11.50
2019-03-17T00:59:18.493Z,12.75
2019-03-17T01:01:46.943Z,15.08
2019-03-17T01:04:15.474Z,12.18
2019-03-17T01:06:43.917Z,15.58
2019-03-17T01:09:12.358Z,13.35
2019-03-17T01:11:40.875Z,13.28
2019-03-17T01:14:09.301Z,14.28
2019-03-17T01:16:37.944Z,16.93
2019-03-17T01:19:06.433Z,15.85
2019-03-17T01:21:34.844Z,16.35
2019-03-17T01:24:03.299Z,13.50
2019-03-17T01:26:31.884Z,16.50
2019-03-17T01:29:00.523Z,11.73
2019-03-17T01:31:29.000Z,15.38
2019-03-17T01:33:57.445Z,12.30
2019-03-17T01:36:25.991Z,15.28
2019-03-17T01:38:54.453Z,11.78
2019-03-17T01:41:22.874Z,13.00
2019-03-17T01:43:51.318Z,12.85
2019-03-17T01:46:19.787Z,9.80
2019-03-17T01:48:48.228Z,16.15
2019-03-17T01:51:16.769Z,13.85
2019-03-17T01:53:45.385Z,14.45
2019-03-17T01:56:13.817Z,14.58
2019-03-17T01:58:42.308Z,13.90
2019-03-17T02:01:11.939Z,11.80
2019-03-17T02:03:40.752Z,11.85
2019-03-17T02:06:12.253Z,14.63
2019-03-17T02:08:41.168Z,17.50
2019-03-17T02:11:09.622Z,16.27
2019-03-17T02:13:38.077Z,14.93
2019-03-17T02:16:07.021Z,16.60
2019-03-17T02:18:35.468Z,17.12
2019-03-17T02:21:03.904Z,14.23
2019-03-17T02:23:32.399Z,13.10
2019-03-17T02:26:01.934Z,12.90
2019-03-17T02:28:30.413Z,14.85
2019-03-17T02:30:58.855Z,13.08
2019-03-17T02:33:27.299Z,10.63
2019-03-17T02:35:55.864Z,14.63
2019-03-17T02:38:24.306Z,13.68
2019-03-17T02:40:52.752Z,11.97
2019-03-17T02:43:21.759Z,13.83
2019-03-17T02:45:50.194Z,12.10
2019-03-17T02:48:18.735Z,13.20
2019-03-17T02:50:47.634Z,13.48
2019-03-17T02:53:16.056Z,10.35
2019-03-17T02:55:44.502Z,10.03
2019-03-17T02:58:13.070Z,13.20
2019-03-17T03:00:41.518Z,12.43
2019-03-17T03:03:09.950Z,10.40
2019-03-17T03:05:53.557Z,9.10
2019-03-17T03:08:08.683Z,11.53
2019-03-17T03:10:37.141Z,12.90
2019-03-17T03:13:05.769Z,15.15
2019-03-17T03:15:34.217Z,13.75
2019-03-17T03:18:02.629Z,13.55
2019-03-17T03:20:31.089Z,11.65
2019-03-17T03:22:59.526Z,12.00
2019-03-17T03:25:27.976Z,14.20
2019-03-17T03:27:56.670Z,15.95
2019-03-17T03:30:25.082Z,10.82
2019-03-17T03:32:53.621Z,13.48
2019-03-17T03:35:22.117Z,15.78
2019-03-17T03:37:50.563Z,17.57
2019-03-17T03:40:19.002Z,17.52
2019-03-17T03:42:47.901Z,16.25
2019-03-17T03:45:16.418Z,15.28
2019-03-17T03:47:44.856Z,17.02
2019-03-17T03:50:13.652Z,18.65
2019-03-17T03:52:42.035Z,13.03
2019-03-17T03:55:10.554Z,15.03
2019-03-17T03:57:39.067Z,15.55
2019-03-17T04:00:10.712Z,16.02
2019-03-17T04:02:39.366Z,19.15
2019-03-17T04:05:08.249Z,17.05
2019-03-17T04:07:36.669Z,13.72
2019-03-17T04:10:08.055Z,12.45
2019-03-17T04:12:36.916Z,15.88
2019-03-17T04:15:07.495Z,13.80
2019-03-17T04:17:35.919Z,16.20
2019-03-17T04:20:06.425Z,15.70
2019-03-17T04:22:34.881Z,14.30
2019-03-17T04:25:03.951Z,16.77
2019-03-17T04:27:32.925Z,15.08
2019-03-17T04:30:01.347Z,15.23
2019-03-17T04:32:29.785Z,11.38
2019-03-17T04:34:58.384Z,13.10
2019-03-17T04:37:26.825Z,13.38
2019-03-17T04:39:56.073Z,12.93
2019-03-17T04:42:24.529Z,12.07
2019-03-17T04:44:52.990Z,14.03
2019-03-17T04:47:21.428Z,10.48
2019-03-17T04:49:49.872Z,10.13
2019-03-17T04:52:18.319Z,10.65
2019-03-17T04:54:46.770Z,12.20
2019-03-17T04:57:15.342Z,11.75
2019-03-17T04:59:43.776Z,10.60
2019-03-17T05:02:13.655Z,12.68
2019-03-17T05:04:43.032Z,13.40
2019-03-17T05:07:11.472Z,9.70
2019-03-17T05:09:39.954Z,10.10
2019-03-17T05:12:08.662Z,13.18
2019-03-17T05:14:37.100Z,16.70
2019-03-17T05:17:05.540Z,11.20
2019-03-17T05:19:33.983Z,12.80
2019-03-17T05:22:02.490Z,10.23
2019-03-17T05:24:30.936Z,12.60
2019-03-17T05:26:59.406Z,10.28
2019-03-17T05:29:27.843Z,11.20
2019-03-17T05:31:56.277Z,13.88
2019-03-17T05:34:25.012Z,14.33
2019-03-17T05:37:05.593Z,11.85
2019-03-17T05:39:23.579Z,12.35
2019-03-17T05:41:52.366Z,12.30
2019-03-17T05:44:20.779Z,7.95
2019-03-17T05:46:49.218Z,11.00
2019-03-17T05:49:17.688Z,10.43
2019-03-17T05:51:46.142Z,11.22
2019-03-17T05:54:14.568Z,13.80
2019-03-17T05:56:43.236Z,11.88
2019-03-17T05:59:11.681Z,11.00
2019-03-17T06:01:40.120Z,15.18
2019-03-17T06:04:08.579Z,9.53
2019-03-17T06:06:37.849Z,9.55
2019-03-17T06:09:07.457Z,12.63
2019-03-17T06:11:35.983Z,10.30
2019-03-17T06:14:04.542Z,12.37
2019-03-17T06:16:32.956Z,12.73
2019-03-17T06:19:01.574Z,11.48
2019-03-17T06:21:29.993Z,12.95
2019-03-17T06:23:58.465Z,12.73
2019-03-17T06:26:27.007Z,13.50
2019-03-17T06:28:55.446Z,10.63
2019-03-17T06:31:23.877Z,10.23
2019-03-17T06:33:52.473Z,13.88
2019-03-17T06:36:20.853Z,12.53
2019-03-17T06:38:49.272Z,16.35
2019-03-17T06:41:18.618Z,9.80
2019-03-17T06:43:47.017Z,4.50
2019-03-17T06:46:15.453Z,4.53
2019-03-17T06:48:44.378Z,6.25
2019-03-17T06:51:12.768Z,5.35
2019-03-17T06:53:41.307Z,2.52
2019-03-17T06:56:09.751Z,7.47
2019-03-17T06:58:38.187Z,5.78
2019-03-17T07:01:06.605Z,8.25
2019-03-17T07:03:35.063Z,5.45
2019-03-17T07:06:03.498Z,10.68
2019-03-17T07:08:31.922Z,7.30
2019-03-17T07:11:00.702Z,11.43
2019-03-17T07:13:29.121Z,9.05
2019-03-17T07:15:57.564Z,8.70
2019-03-17T07:18:26.022Z,8.45
2019-03-17T07:20:54.484Z,10.58
2019-03-17T07:23:22.907Z,11.10
2019-03-17T07:25:51.351Z,9.08
2019-03-17T07:28:19.780Z,11.75
2019-03-17T07:30:48.215Z,7.42
2019-03-17T07:33:16.768Z,10.85
2019-03-17T07:35:46.450Z,8.03
2019-03-17T07:38:14.955Z,5.33
2019-03-17T07:40:43.407Z,6.87
2019-03-17T07:43:11.827Z,5.25
2019-03-17T07:45:40.265Z,11.80
2019-03-17T07:48:08.955Z,10.75
2019-03-17T07:50:37.368Z,6.17
2019-03-17T07:53:06.032Z,7.90
2019-03-17T07:55:34.593Z,10.38
2019-03-17T07:58:03.012Z,6.70
2019-03-17T08:00:32.483Z,6.42
2019-03-17T08:03:01.276Z,10.55
2019-03-17T08:05:29.761Z,5.65
2019-03-17T08:08:08.840Z,7.55
2019-03-17T08:10:28.734Z,6.22
2019-03-17T08:12:57.431Z,6.65
2019-03-17T08:15:25.868Z,8.75
2019-03-17T08:17:55.655Z,11.53
2019-03-17T08:20:24.422Z,9.08
2019-03-17T08:22:56.826Z,12.07
2019-03-17T08:25:25.546Z,9.58
2019-03-17T08:27:54.473Z,7.95
2019-03-17T08:30:23.450Z,7.90
2019-03-17T08:32:52.540Z,10.20
2019-03-17T08:35:22.637Z,7.33
2019-03-17T08:37:52.056Z,12.73
2019-03-17T08:40:21.697Z,8.15
2019-03-17T08:42:50.683Z,10.32
2019-03-17T08:45:19.454Z,5.90
2019-03-17T08:47:57.921Z,5.08
2019-03-17T08:50:19.225Z,5.30
2019-03-17T08:52:48.101Z,16.60
2019-03-17T08:55:16.538Z,6.37
2019-03-17T08:57:44.970Z,10.05
2019-03-17T09:00:18.124Z,10.18
2019-03-17T09:02:46.577Z,9.18
2019-03-17T09:05:14.984Z,9.88
2019-03-17T09:07:43.653Z,14.13
2019-03-17T09:10:13.550Z,11.15
2019-03-17T09:12:41.973Z,10.32
2019-03-17T09:15:10.677Z,7.08
2019-03-17T09:17:39.272Z,11.05
2019-03-17T09:20:12.818Z,10.43
2019-03-17T09:22:41.306Z,13.05
2019-03-17T09:25:10.943Z,11.53
2019-03-17T09:27:39.546Z,11.70
2019-03-17T09:30:26.615Z,9.30
2019-03-17T09:32:56.631Z,12.53
2019-03-17T09:35:25.467Z,15.23
2019-03-17T09:37:53.910Z,15.20
2019-03-17T09:40:22.708Z,10.63
2019-03-17T09:42:51.348Z,11.90
2019-03-17T09:45:19.730Z,8.85
2019-03-17T09:47:48.634Z,14.93
2019-03-17T09:50:21.213Z,9.10
2019-03-17T09:52:49.895Z,10.10
2019-03-17T09:55:19.776Z,11.38
2019-03-17T09:57:48.966Z,12.25
2019-03-17T10:00:21.705Z,9.08
2019-03-17T10:02:50.116Z,8.68
2019-03-17T10:05:18.616Z,10.03
2019-03-17T10:07:47.048Z,11.57
2019-03-17T10:10:21.388Z,10.88
2019-03-17T10:12:50.278Z,11.00
2019-03-17T10:15:19.947Z,11.83
2019-03-17T10:17:48.446Z,10.53
2019-03-17T10:20:20.587Z,9.35
2019-03-17T10:25:17.653Z,9.73
2019-03-17T10:27:46.110Z,10.03
2019-03-17T10:30:21.888Z,9.18
2019-03-17T10:32:50.451Z,6.60
2019-03-17T10:35:19.146Z,8.95
2019-03-17T10:37:47.551Z,9.50
2019-03-17T10:40:18.336Z,10.10
2019-03-17T10:42:46.899Z,6.55
2019-03-17T10:45:16.274Z,6.92
2019-03-17T10:47:46.991Z,5.12
2019-03-17T10:50:20.909Z,10.58
2019-03-17T10:52:49.894Z,14.53
2019-03-17T10:55:18.721Z,9.28
2019-03-17T10:57:47.173Z,10.55
2019-03-17T11:00:23.730Z,8.60
2019-03-17T11:02:52.625Z,7.58
2019-03-17T11:05:21.442Z,6.17
2019-03-17T11:07:51.714Z,7.10
2019-03-17T11:10:22.468Z,8.60
2019-03-17T11:12:51.422Z,7.92
2019-03-17T11:15:21.317Z,5.87
2019-03-17T11:17:50.116Z,10.40
2019-03-17T11:20:18.802Z,9.40
2019-03-17T11:22:47.745Z,10.03
2019-03-17T11:25:18.377Z,7.22
2019-03-17T11:27:47.576Z,9.68
2019-03-17T11:30:18.099Z,9.00
2019-03-17T11:32:48.236Z,7.03
2019-03-17T11:35:17.386Z,9.45
2019-03-17T11:37:46.175Z,9.15
2019-03-17T11:40:19.871Z,16.07
2019-03-17T11:42:50.170Z,6.05
2019-03-17T11:45:19.097Z,8.00
2019-03-17T11:47:48.150Z,7.50
2019-03-17T11:50:18.382Z,2.85
2019-03-17T11:52:47.101Z,7.28
2019-03-17T11:55:15.909Z,5.95
2019-03-17T11:57:44.647Z,10.20
2019-03-17T12:00:17.751Z,6.33
2019-03-17T12:02:46.762Z,7.97
2019-03-17T12:05:15.554Z,4.92
2019-03-17T12:07:44.406Z,5.08
2019-03-17T12:10:20.274Z,3.60
2019-03-17T12:12:48.735Z,4.62
2019-03-17T12:15:21.691Z,9.48
2019-03-17T12:17:50.153Z,6.78
2019-03-17T12:20:18.715Z,3.67
2019-03-17T12:22:47.143Z,8.80
2019-03-17T12:25:17.454Z,9.43
2019-03-17T12:27:46.078Z,7.03
2019-03-17T12:30:19.592Z,4.10
2019-03-17T12:32:49.249Z,5.87
2019-03-17T12:35:17.955Z,8.45
2019-03-17T12:37:46.470Z,7.28
2019-03-17T12:40:14.997Z,6.62
2019-03-17T12:42:43.438Z,5.42
2019-03-17T12:45:12.532Z,6.55
2019-03-17T12:47:41.910Z,10.43
2019-03-17T12:50:18.395Z,8.13
2019-03-17T12:52:48.535Z,5.70
2019-03-17T12:55:17.266Z,5.97
2019-03-17T12:57:45.835Z,4.70
2019-03-17T13:00:23.425Z,8.98
2019-03-17T13:02:51.870Z,5.65
2019-03-17T13:05:20.343Z,5.08
2019-03-17T13:07:49.192Z,5.40
2019-03-17T13:10:22.260Z,6.12
2019-03-17T13:12:50.726Z,6.97
2019-03-17T13:15:19.723Z,6.70
2019-03-17T13:17:49.047Z,5.53
2019-03-17T13:20:19.248Z,6.60
2019-03-17T13:22:50.428Z,4.87
2019-03-17T13:25:20.713Z,3.22
2019-03-17T13:27:49.931Z,2.20
2019-03-17T13:30:20.879Z,4.25
2019-03-17T13:32:50.932Z,4.58
2019-03-17T13:35:21.148Z,4.00
2019-03-17T13:37:52.667Z,4.47
2019-03-17T13:40:29.585Z,5.15
2019-03-17T13:42:54.807Z,4.75
2019-03-17T13:45:23.845Z,5.50
2019-03-17T13:47:53.333Z,6.55
2019-03-17T13:50:25.888Z,6.75
2019-03-17T13:52:55.174Z,4.67
2019-03-17T13:55:23.708Z,5.97
2019-03-17T13:58:01.886Z,6.87
2019-03-17T14:00:33.549Z,7.22
2019-03-17T14:03:03.646Z,3.27
2019-03-17T14:05:36.608Z,5.05
2019-03-17T14:08:06.419Z,3.70
2019-03-17T14:10:41.081Z,4.67
2019-03-17T14:13:05.126Z,3.98
2019-03-17T14:15:33.750Z,5.37
2019-03-17T14:18:04.185Z,3.77
2019-03-17T14:20:32.940Z,5.15
2019-03-17T14:23:01.775Z,7.12
2019-03-17T14:25:33.262Z,3.25
2019-03-17T14:28:01.823Z,5.15
2019-03-17T14:30:30.553Z,4.05
2019-03-17T14:32:59.060Z,5.12
2019-03-17T14:35:27.509Z,5.90
2019-03-17T14:37:55.961Z,5.20
2019-03-17T14:40:24.483Z,6.47
2019-03-17T14:42:55.201Z,4.80
2019-03-17T14:45:23.120Z,4.60
2019-03-17T14:47:51.576Z,5.83
2019-03-17T14:50:26.478Z,6.72
2019-03-17T14:52:55.870Z,8.50
2019-03-17T14:55:24.301Z,6.70
2019-03-17T14:57:52.821Z,7.25
2019-03-17T15:00:23.149Z,7.70
2019-03-17T15:02:51.879Z,7.97
2019-03-17T15:05:20.653Z,9.00
2019-03-17T15:07:49.191Z,6.28
2019-03-17T15:10:19.038Z,5.85
2019-03-17T15:12:48.106Z,6.15
2019-03-17T15:15:23.721Z,7.65
2019-03-17T15:17:52.896Z,8.40
2019-03-17T15:20:26.614Z,8.30
2019-03-17T15:22:55.331Z,9.83
2019-03-17T15:25:24.004Z,4.92
2019-03-17T15:27:54.460Z,8.43
2019-03-17T15:30:34.177Z,4.97
2019-03-17T15:33:02.991Z,6.97
2019-03-17T15:35:31.668Z,8.63
2019-03-17T15:38:01.860Z,12.05
2019-03-17T15:40:30.731Z,9.75
2019-03-17T15:43:00.981Z,15.25
2019-03-17T15:45:29.638Z,6.90
2019-03-17T15:47:58.095Z,7.45
2019-03-17T15:50:30.992Z,7.70
2019-03-17T15:52:59.486Z,12.37
2019-03-17T15:55:27.950Z,5.78
2019-03-17T15:57:56.373Z,6.15
2019-03-17T16:00:31.660Z,8.90
2019-03-17T16:02:57.798Z,9.35
2019-03-17T16:05:26.290Z,8.23
2019-03-17T16:07:54.836Z,7.92
2019-03-17T16:10:24.999Z,10.50
2019-03-17T16:12:53.427Z,9.75
2019-03-17T16:15:21.923Z,12.40
2019-03-17T16:17:50.405Z,10.23
2019-03-17T16:20:22.863Z,10.25
2019-03-17T16:22:51.672Z,10.30
2019-03-17T16:25:25.662Z,7.33
2019-03-17T16:27:54.101Z,7.28
2019-03-17T16:30:33.802Z,10.53
2019-03-17T16:33:02.511Z,7.50
2019-03-17T16:35:31.003Z,7.97
2019-03-17T16:37:59.716Z,8.40
2019-03-17T16:40:32.990Z,10.88
2019-03-17T16:43:01.514Z,10.55
2019-03-17T16:45:30.002Z,9.75
2019-03-17T16:47:58.437Z,9.20
2019-03-17T16:50:27.005Z,6.37
2019-03-17T16:52:56.077Z,13.25
2019-03-17T16:55:26.851Z,9.73
2019-03-17T16:57:55.315Z,16.62
2019-03-17T17:00:25.174Z,13.43
2019-03-17T17:02:55.330Z,8.68
2019-03-17T17:05:24.877Z,14.83
2019-03-17T17:07:53.515Z,9.88
2019-03-17T17:10:23.687Z,14.98
2019-03-17T17:12:52.072Z,13.65
2019-03-17T17:15:25.918Z,10.98
2019-03-17T17:17:54.400Z,8.65
2019-03-17T17:20:36.270Z,10.25
2019-03-17T17:23:04.925Z,7.12
2019-03-17T17:25:33.342Z,5.83
2019-03-17T17:28:02.257Z,9.63
2019-03-17T17:30:30.671Z,8.68
2019-03-17T17:32:59.099Z,10.75
2019-03-17T17:35:27.544Z,7.12
2019-03-17T17:37:56.130Z,9.33
2019-03-17T17:40:26.045Z,12.78
2019-03-17T17:42:55.010Z,10.13
2019-03-17T17:45:26.856Z,9.68
2019-03-17T17:47:55.442Z,8.70
2019-03-17T17:50:25.987Z,12.50
2019-03-17T17:52:54.433Z,12.13
2019-03-17T17:55:22.856Z,9.40
2019-03-17T17:57:52.783Z,8.10
2019-03-17T18:00:23.582Z,10.80
2019-03-17T18:02:52.035Z,12.47
2019-03-17T18:05:20.781Z,11.65
2019-03-17T18:07:49.269Z,13.88
2019-03-17T18:10:18.646Z,9.13
2019-03-17T18:12:47.304Z,10.80
2019-03-17T18:15:21.822Z,10.72
2019-03-17T18:17:50.257Z,7.10
2019-03-17T18:20:19.038Z,13.28
2019-03-17T18:22:47.504Z,13.90
2019-03-17T18:25:17.698Z,8.55
2019-03-17T18:27:46.485Z,14.83
2019-03-17T18:30:17.514Z,14.75
2019-03-17T18:32:45.986Z,14.33
2019-03-17T18:35:14.716Z,11.35
2019-03-17T18:37:44.578Z,12.43
2019-03-17T18:40:22.882Z,10.15
2019-03-17T18:42:51.398Z,11.38
2019-03-17T18:45:21.269Z,14.38
2019-03-17T18:47:50.138Z,10.68
2019-03-17T18:50:20.562Z,7.33
2019-03-17T18:52:49.096Z,9.73
2019-03-17T18:55:17.576Z,12.80
2019-03-17T18:57:46.639Z,11.20
2019-03-17T19:00:17.260Z,10.28
2019-03-17T19:02:46.205Z,11.40
2019-03-17T19:05:15.856Z,9.23
2019-03-17T19:07:44.337Z,10.23
2019-03-17T19:10:17.452Z,12.75
2019-03-17T19:12:46.418Z,9.28
2019-03-17T19:15:18.469Z,5.53
2019-03-17T19:17:46.964Z,17.17
2019-03-17T19:20:16.871Z,8.45
2019-03-17T19:22:45.299Z,13.00
2019-03-17T19:25:25.008Z,10.32
2019-03-17T19:27:53.518Z,12.45
2019-03-17T19:30:22.886Z,11.30
2019-03-17T19:32:51.496Z,6.55
2019-03-17T19:35:20.346Z,11.05
2019-03-17T19:37:48.796Z,11.95
2019-03-17T19:40:21.402Z,9.60
2019-03-17T19:42:58.462Z,6.87
2019-03-17T19:45:20.605Z,11.70
2019-03-17T19:47:49.176Z,14.05
2019-03-17T19:50:24.122Z,9.18
2019-03-17T19:52:52.654Z,10.23
2019-03-17T19:55:21.560Z,11.08
2019-03-17T19:57:50.022Z,12.95
2019-03-17T20:00:22.384Z,9.33
2019-03-17T20:02:50.848Z,9.10
2019-03-17T20:05:19.313Z,10.95
2019-03-17T20:07:47.713Z,16.20
2019-03-17T20:10:30.035Z,17.80
2019-03-17T20:13:10.330Z,14.73
2019-03-17T20:15:28.643Z,15.03
2019-03-17T20:17:57.176Z,12.75
2019-03-17T20:20:25.617Z,12.88
2019-03-17T20:22:54.142Z,14.73
2019-03-17T20:25:22.719Z,11.05
2019-03-17T20:27:51.308Z,9.85
2019-03-17T20:30:20.198Z,14.83
2019-03-17T20:32:48.728Z,11.50
2019-03-17T20:35:17.818Z,13.35
2019-03-17T20:37:46.301Z,12.65
2019-03-17T20:40:18.697Z,13.62
2019-03-17T20:42:47.153Z,10.90
2019-03-17T20:45:16.252Z,15.43
2019-03-17T20:47:45.446Z,11.12
2019-03-17T20:50:20.119Z,11.10
2019-03-17T20:52:48.791Z,12.47
2019-03-17T20:55:17.643Z,11.03
2019-03-17T20:57:46.154Z,10.32
2019-03-17T21:00:19.366Z,15.00
2019-03-17T21:02:48.004Z,15.58
2019-03-17T21:05:16.618Z,9.55
2019-03-17T21:07:45.073Z,12.07
2019-03-17T21:10:17.698Z,8.30
2019-03-17T21:12:46.203Z,12.23
2019-03-17T21:15:15.956Z,7.83
2019-03-17T21:17:44.904Z,15.98
2019-03-17T21:20:18.224Z,12.55
2019-03-17T21:22:46.656Z,13.83
2019-03-17T21:25:15.105Z,10.38
2019-03-17T21:27:43.625Z,9.28
2019-03-17T21:30:15.066Z,12.37
2019-03-17T21:32:43.567Z,11.30
2019-03-17T21:35:12.165Z,15.35
2019-03-17T21:37:40.626Z,10.63
2019-03-17T21:40:11.330Z,11.83
2019-03-17T21:42:39.841Z,13.83
2019-03-17T21:45:10.368Z,11.70
2019-03-17T21:47:39.161Z,11.57
2019-03-17T21:50:10.698Z,10.48
2019-03-17T21:52:39.151Z,10.43
2019-03-17T21:55:09.157Z,9.23
2019-03-17T21:57:37.675Z,9.83
2019-03-17T22:00:09.527Z,13.72
2019-03-17T22:02:38.179Z,9.85
2019-03-17T22:05:06.691Z,15.28
2019-03-17T22:07:48.192Z,12.07
2019-03-17T22:10:08.668Z,10.38
2019-03-17T22:12:37.126Z,12.53
2019-03-17T22:15:08.245Z,16.67
2019-03-17T22:17:37.104Z,17.47
2019-03-17T22:20:10.465Z,15.95
2019-03-17T22:22:38.873Z,16.85
2019-03-17T22:25:09.222Z,8.90
2019-03-17T22:27:37.684Z,14.50
2019-03-17T22:30:12.001Z,14.98
2019-03-17T22:32:40.468Z,11.55
2019-03-17T22:35:10.284Z,11.88
2019-03-17T22:37:38.711Z,10.08
2019-03-17T22:40:10.482Z,14.10
2019-03-17T22:42:38.917Z,13.00
2019-03-17T22:45:14.838Z,9.25
2019-03-17T22:47:43.372Z,9.58
2019-03-17T22:50:19.639Z,9.93
2019-03-17T22:52:48.273Z,10.82
2019-03-17T22:55:16.876Z,15.93
2019-03-17T22:57:45.351Z,6.97
2019-03-17T23:00:20.574Z,12.28
2019-03-17T23:02:49.016Z,14.13
2019-03-17T23:05:17.457Z,11.53
2019-03-17T23:07:46.068Z,25.82
2019-03-17T23:10:14.474Z,11.45
2019-03-17T23:12:43.238Z,17.57
2019-03-17T23:15:13.114Z,14.20
2019-03-17T23:17:41.559Z,10.03
2019-03-17T23:20:15.349Z,12.28
2019-03-17T23:22:44.245Z,10.55
2019-03-17T23:25:12.957Z,5.70
2019-03-17T23:27:41.459Z,7.58
2019-03-17T23:30:18.303Z,7.42
2019-03-17T23:32:49.416Z,9.63
2019-03-17T23:35:18.349Z,9.00
2019-03-17T23:37:46.822Z,8.53
2019-03-17T23:40:16.384Z,6.90
2019-03-17T23:42:44.831Z,9.53
2019-03-17T23:45:14.249Z,10.40
2019-03-17T23:47:42.697Z,14.95
2019-03-17T23:50:12.962Z,12.68
2019-03-17T23:52:41.467Z,11.28
2019-03-17T23:55:12.217Z,11.40
2019-03-17T23:57:40.641Z,10.80
